createdAt,value
2018-08-16T00:00:50.320Z,1013.22
2018-08-16T00:02:51.023Z,1013.20
2018-08-16T00:03:51.152Z,1013.18
2018-08-16T00:04:50.352Z,1013.18
2018-08-16T00:05:50.909Z,1013.15
2018-08-16T00:06:51.282Z,1013.13
2018-08-16T00:07:50.402Z,1013.15
2018-08-16T00:08:50.420Z,1013.15
2018-08-16T00:09:50.434Z,1013.17
2018-08-16T00:10:50.458Z,1013.14
2018-08-16T00:11:50.953Z,1013.16
2018-08-16T00:12:50.485Z,1013.17
2018-08-16T00:13:50.563Z,1013.15
2018-08-16T00:14:50.519Z,1013.13
2018-08-16T00:15:51.685Z,1013.13
2018-08-16T00:16:50.554Z,1013.10
2018-08-16T00:17:50.570Z,1013.12
2018-08-16T00:18:50.585Z,1013.11
2018-08-16T00:19:50.601Z,1013.10
2018-08-16T00:20:50.618Z,1013.08
2018-08-16T00:21:50.634Z,1013.08
2018-08-16T00:22:50.704Z,1013.08
2018-08-16T00:23:50.671Z,1013.05
2018-08-16T00:24:50.732Z,1013.04
2018-08-16T00:25:50.715Z,1013.04
2018-08-16T00:26:50.717Z,1013.04
2018-08-16T00:27:50.734Z,1013.03
2018-08-16T00:29:50.828Z,1013.00
2018-08-16T00:30:50.837Z,1013.05
2018-08-16T00:31:50.803Z,1013.02
2018-08-16T00:32:50.814Z,1013.00
2018-08-16T00:33:50.831Z,1013.01
2018-08-16T00:34:50.847Z,1013.00
2018-08-16T00:35:50.868Z,1013.00
2018-08-16T00:36:50.880Z,1013.00
2018-08-16T00:37:50.897Z,1012.99
2018-08-16T00:38:50.924Z,1012.98
2018-08-16T00:39:50.930Z,1012.99
2018-08-16T00:40:50.966Z,1012.98
2018-08-16T00:41:50.963Z,1012.96
2018-08-16T00:43:50.994Z,1012.97
2018-08-16T00:44:51.431Z,1012.96
2018-08-16T00:45:51.028Z,1013.02
2018-08-16T00:46:51.478Z,1012.98
2018-08-16T00:47:51.424Z,1012.99
2018-08-16T00:48:51.077Z,1012.99
2018-08-16T00:49:51.101Z,1012.99
2018-08-16T00:50:51.218Z,1013.01
2018-08-16T00:51:51.125Z,1013.00
2018-08-16T00:52:51.151Z,1013.00
2018-08-16T00:53:51.160Z,1013.03
2018-08-16T00:54:51.226Z,1013.02
2018-08-16T00:55:51.190Z,1013.00
2018-08-16T00:56:51.207Z,1013.00
2018-08-16T00:57:51.247Z,1012.99
2018-08-16T00:58:51.813Z,1013.00
2018-08-16T00:59:51.385Z,1012.98
2018-08-16T01:00:51.290Z,1012.96
2018-08-16T01:01:51.289Z,1012.96
2018-08-16T01:02:51.839Z,1012.99
2018-08-16T01:03:51.319Z,1012.95
2018-08-16T01:04:51.336Z,1012.91
2018-08-16T01:05:51.356Z,1012.93
2018-08-16T01:06:51.371Z,1012.95
2018-08-16T01:07:51.387Z,1012.96
2018-08-16T01:08:51.403Z,1012.91
2018-08-16T01:09:51.420Z,1012.98
2018-08-16T01:10:51.435Z,1012.95
2018-08-16T01:11:51.451Z,1012.95
2018-08-16T01:12:51.477Z,1012.93
2018-08-16T01:13:51.484Z,1012.93
2018-08-16T01:14:51.501Z,1012.94
2018-08-16T01:15:51.522Z,1012.92
2018-08-16T01:16:51.599Z,1012.91
2018-08-16T01:17:51.550Z,1012.94
2018-08-16T01:18:51.631Z,1012.93
2018-08-16T01:19:51.607Z,1012.93
2018-08-16T01:20:51.598Z,1012.89
2018-08-16T01:21:51.615Z,1012.88
2018-08-16T01:22:51.630Z,1012.92
2018-08-16T01:23:52.240Z,1012.92
2018-08-16T01:24:51.661Z,1012.92
2018-08-16T01:25:51.679Z,1012.93
2018-08-16T01:26:52.005Z,1012.91
2018-08-16T01:27:51.712Z,1012.89
2018-08-16T01:28:51.728Z,1012.90
2018-08-16T01:29:51.746Z,1012.94
2018-08-16T01:30:52.130Z,1012.92
2018-08-16T01:31:51.809Z,1012.92
2018-08-16T01:32:51.830Z,1012.95
2018-08-16T01:33:52.033Z,1012.91
2018-08-16T01:35:51.839Z,1012.92
2018-08-16T01:37:51.872Z,1012.88
2018-08-16T01:38:51.907Z,1012.91
2018-08-16T01:39:51.906Z,1012.87
2018-08-16T01:40:51.922Z,1012.87
2018-08-16T01:41:51.938Z,1012.86
2018-08-16T01:42:51.962Z,1012.85
2018-08-16T01:43:51.975Z,1012.87
2018-08-16T01:44:51.989Z,1012.88
2018-08-16T01:45:52.002Z,1012.83
2018-08-16T01:46:52.013Z,1012.87
2018-08-16T01:47:52.030Z,1012.82
2018-08-16T01:48:52.093Z,1012.81
2018-08-16T01:49:52.071Z,1012.83
2018-08-16T01:50:52.076Z,1012.80
2018-08-16T01:51:52.194Z,1012.80
2018-08-16T01:52:52.159Z,1012.80
2018-08-16T01:53:52.125Z,1012.75
2018-08-16T01:54:52.142Z,1012.81
2018-08-16T01:55:52.163Z,1012.82
2018-08-16T01:56:52.172Z,1012.86
2018-08-16T01:57:52.205Z,1012.81
2018-08-16T01:58:52.405Z,1012.79
2018-08-16T01:59:52.226Z,1012.79
2018-08-16T02:00:52.243Z,1012.79
2018-08-16T02:01:52.258Z,1012.80
2018-08-16T02:02:52.270Z,1012.81
2018-08-16T02:03:52.289Z,1012.80
2018-08-16T02:04:52.308Z,1012.77
2018-08-16T02:05:52.319Z,1012.78
2018-08-16T02:06:52.335Z,1012.74
2018-08-16T02:07:52.354Z,1012.77
2018-08-16T02:08:52.409Z,1012.74
2018-08-16T02:09:52.462Z,1012.77
2018-08-16T02:10:52.402Z,1012.78
2018-08-16T02:11:52.415Z,1012.77
2018-08-16T02:12:52.434Z,1012.77
2018-08-16T02:13:52.450Z,1012.75
2018-08-16T02:14:52.465Z,1012.72
2018-08-16T02:15:52.492Z,1012.68
2018-08-16T02:16:52.500Z,1012.70
2018-08-16T02:17:52.612Z,1012.71
2018-08-16T02:18:52.530Z,1012.68
2018-08-16T02:19:52.544Z,1012.70
2018-08-16T02:20:52.862Z,1012.67
2018-08-16T02:21:52.580Z,1012.69
2018-08-16T02:22:52.596Z,1012.68
2018-08-16T02:23:52.813Z,1012.68
2018-08-16T02:24:53.168Z,1012.69
2018-08-16T02:25:52.648Z,1012.67
2018-08-16T02:26:53.293Z,1012.67
2018-08-16T02:27:53.216Z,1012.68
2018-08-16T02:28:52.705Z,1012.69
2018-08-16T02:29:52.708Z,1012.68
2018-08-16T02:30:52.735Z,1012.67
2018-08-16T02:31:52.761Z,1012.67
2018-08-16T02:32:52.765Z,1012.69
2018-08-16T02:33:52.960Z,1012.67
2018-08-16T02:34:53.073Z,1012.64
2018-08-16T02:35:53.172Z,1012.67
2018-08-16T02:36:53.097Z,1012.64
2018-08-16T02:37:52.925Z,1012.65
2018-08-16T02:38:52.860Z,1012.64
2018-08-16T02:39:52.921Z,1012.63
2018-08-16T02:40:53.817Z,1012.61
2018-08-16T02:41:52.914Z,1012.59
2018-08-16T02:42:52.927Z,1012.66
2018-08-16T02:44:53.222Z,1012.60
2018-08-16T02:45:52.967Z,1012.64
2018-08-16T02:46:52.983Z,1012.58
2018-08-16T02:47:53.002Z,1012.63
2018-08-16T02:48:53.015Z,1012.58
2018-08-16T02:49:53.030Z,1012.56
2018-08-16T02:50:53.106Z,1012.57
2018-08-16T02:51:53.079Z,1012.52
2018-08-16T02:52:53.077Z,1012.59
2018-08-16T02:53:53.094Z,1012.61
2018-08-16T02:54:53.118Z,1012.54
2018-08-16T02:55:53.125Z,1012.59
2018-08-16T02:56:53.145Z,1012.55
2018-08-16T02:57:53.209Z,1012.56
2018-08-16T02:58:53.179Z,1012.54
2018-08-16T02:59:53.245Z,1012.53
2018-08-16T03:00:53.228Z,1012.48
2018-08-16T03:01:53.222Z,1012.49
2018-08-16T03:03:53.254Z,1012.46
2018-08-16T03:05:53.287Z,1012.46
2018-08-16T03:06:54.003Z,1012.45
2018-08-16T03:07:53.321Z,1012.43
2018-08-16T03:08:53.333Z,1012.39
2018-08-16T03:09:53.351Z,1012.41
2018-08-16T03:10:53.380Z,1012.40
2018-08-16T03:11:53.438Z,1012.40
2018-08-16T03:13:53.845Z,1012.35
2018-08-16T03:14:53.429Z,1012.32
2018-08-16T03:15:53.459Z,1012.33
2018-08-16T03:16:53.463Z,1012.35
2018-08-16T03:17:53.483Z,1012.30
2018-08-16T03:18:53.493Z,1012.31
2018-08-16T03:20:53.626Z,1012.31
2018-08-16T03:21:53.542Z,1012.30
2018-08-16T03:22:53.559Z,1012.26
2018-08-16T03:23:53.574Z,1012.25
2018-08-16T03:24:53.900Z,1012.27
2018-08-16T03:25:53.615Z,1012.28
2018-08-16T03:26:53.625Z,1012.29
2018-08-16T03:27:53.638Z,1012.29
2018-08-16T03:28:53.654Z,1012.28
2018-08-16T03:29:53.671Z,1012.31
2018-08-16T03:30:53.691Z,1012.32
2018-08-16T03:31:53.709Z,1012.33
2018-08-16T03:32:53.719Z,1012.32
2018-08-16T03:33:53.735Z,1012.33
2018-08-16T03:34:53.750Z,1012.35
2018-08-16T03:35:53.767Z,1012.34
2018-08-16T03:36:53.886Z,1012.32
2018-08-16T03:37:53.966Z,1012.29
2018-08-16T03:39:53.830Z,1012.29
2018-08-16T03:40:53.847Z,1012.28
2018-08-16T03:41:54.006Z,1012.26
2018-08-16T03:42:53.879Z,1012.27
2018-08-16T03:44:54.313Z,1012.23
2018-08-16T03:45:54.382Z,1012.23
2018-08-16T03:46:54.376Z,1012.21
2018-08-16T03:47:53.958Z,1012.16
2018-08-16T03:48:53.973Z,1012.17
2018-08-16T03:49:53.992Z,1012.15
2018-08-16T03:50:54.006Z,1012.13
2018-08-16T03:51:54.022Z,1012.15
2018-08-16T03:52:54.040Z,1012.15
2018-08-16T03:53:54.056Z,1012.14
2018-08-16T03:54:54.071Z,1012.12
2018-08-16T03:55:54.090Z,1012.12
2018-08-16T03:56:54.105Z,1012.09
2018-08-16T03:57:54.119Z,1012.08
2018-08-16T03:58:54.148Z,1012.09
2018-08-16T03:59:54.156Z,1012.13
2018-08-16T04:00:54.181Z,1012.14
2018-08-16T04:01:55.248Z,1012.12
2018-08-16T04:03:54.230Z,1012.14
2018-08-16T04:04:54.509Z,1012.13
2018-08-16T04:05:54.755Z,1012.10
2018-08-16T04:07:54.620Z,1012.08
2018-08-16T04:09:55.138Z,1012.06
2018-08-16T04:10:54.335Z,1012.09
2018-08-16T04:11:54.349Z,1012.07
2018-08-16T04:12:54.368Z,1012.05
2018-08-16T04:13:54.375Z,1012.06
2018-08-16T04:14:54.392Z,1012.07
2018-08-16T04:15:54.408Z,1012.05
2018-08-16T04:16:54.736Z,1012.12
2018-08-16T04:17:54.442Z,1012.07
2018-08-16T04:18:54.456Z,1012.09
2018-08-16T04:19:54.474Z,1012.07
2018-08-16T04:20:54.931Z,1012.10
2018-08-16T04:21:54.513Z,1012.14
2018-08-16T04:22:54.521Z,1012.10
2018-08-16T04:23:54.534Z,1012.10
2018-08-16T04:24:54.550Z,1012.10
2018-08-16T04:25:54.566Z,1012.08
2018-08-16T04:26:54.670Z,1012.13
2018-08-16T04:27:54.602Z,1012.11
2018-08-16T04:28:54.619Z,1012.10
2018-08-16T04:29:54.679Z,1012.10
2018-08-16T04:30:54.646Z,1012.08
2018-08-16T04:31:55.335Z,1012.10
2018-08-16T04:32:54.679Z,1012.08
2018-08-16T04:33:55.024Z,1012.10
2018-08-16T04:35:56.914Z,1012.10
2018-08-16T04:36:56.954Z,1012.12
2018-08-16T04:38:56.672Z,1012.17
2018-08-16T04:39:54.823Z,1012.17
2018-08-16T04:40:54.816Z,1012.17
2018-08-16T04:41:54.864Z,1012.16
2018-08-16T04:42:54.874Z,1012.15
2018-08-16T04:43:54.854Z,1012.14
2018-08-16T04:44:54.907Z,1012.14
2018-08-16T04:45:54.887Z,1012.14
2018-08-16T04:46:54.899Z,1012.17
2018-08-16T04:47:55.497Z,1012.12
2018-08-16T04:48:54.930Z,1012.11
2018-08-16T04:49:55.354Z,1012.11
2018-08-16T04:50:54.973Z,1012.14
2018-08-16T04:51:55.032Z,1012.10
2018-08-16T04:52:54.999Z,1012.12
2018-08-16T04:53:55.012Z,1012.08
2018-08-16T04:54:55.028Z,1012.11
2018-08-16T04:55:55.044Z,1012.14
2018-08-16T04:56:55.136Z,1012.17
2018-08-16T04:57:55.076Z,1012.13
2018-08-16T04:58:55.094Z,1012.12
2018-08-16T04:59:55.108Z,1012.11
2018-08-16T05:00:55.124Z,1012.12
2018-08-16T05:01:55.248Z,1012.10
2018-08-16T05:02:55.156Z,1012.14
2018-08-16T05:03:55.401Z,1012.11
2018-08-16T05:04:55.656Z,1012.12
2018-08-16T05:05:55.213Z,1012.12
2018-08-16T05:06:55.245Z,1012.14
2018-08-16T05:07:55.241Z,1012.16
2018-08-16T05:08:55.250Z,1012.17
2018-08-16T05:09:55.266Z,1012.19
2018-08-16T05:10:55.317Z,1012.16
2018-08-16T05:11:55.297Z,1012.18
2018-08-16T05:12:55.400Z,1012.19
2018-08-16T05:13:55.723Z,1012.21
2018-08-16T05:14:55.491Z,1012.20
2018-08-16T05:15:55.409Z,1012.17
2018-08-16T05:16:55.417Z,1012.21
2018-08-16T05:17:55.482Z,1012.22
2018-08-16T05:18:55.412Z,1012.20
2018-08-16T05:19:55.438Z,1012.20
2018-08-16T05:20:55.444Z,1012.20
2018-08-16T05:21:55.948Z,1012.16
2018-08-16T05:22:55.485Z,1012.18
2018-08-16T05:23:55.526Z,1012.19
2018-08-16T05:24:55.506Z,1012.22
2018-08-16T05:26:55.547Z,1012.22
2018-08-16T05:27:55.554Z,1012.17
2018-08-16T05:28:56.422Z,1012.20
2018-08-16T05:29:55.586Z,1012.16
2018-08-16T05:30:55.611Z,1012.16
2018-08-16T05:31:55.668Z,1012.16
2018-08-16T05:32:55.647Z,1012.13
2018-08-16T05:33:55.778Z,1012.17
2018-08-16T05:34:55.897Z,1012.18
2018-08-16T05:36:56.367Z,1012.16
2018-08-16T05:37:55.717Z,1012.15
2018-08-16T05:38:55.732Z,1012.15
2018-08-16T05:39:55.994Z,1012.14
2018-08-16T05:40:56.044Z,1012.11
2018-08-16T05:42:55.909Z,1012.11
2018-08-16T05:43:55.809Z,1012.10
2018-08-16T05:44:55.971Z,1012.13
2018-08-16T05:45:55.872Z,1012.14
2018-08-16T05:46:55.860Z,1012.13
2018-08-16T05:47:55.982Z,1012.13
2018-08-16T05:48:55.946Z,1012.11
2018-08-16T05:49:55.966Z,1012.09
2018-08-16T05:50:56.033Z,1012.08
2018-08-16T05:51:55.981Z,1012.10
2018-08-16T05:52:55.969Z,1012.08
2018-08-16T05:54:57.213Z,1012.08
2018-08-16T05:55:56.661Z,1012.07
2018-08-16T05:57:56.149Z,1012.09
2018-08-16T05:58:56.118Z,1012.09
2018-08-16T05:59:56.512Z,1012.12
2018-08-16T06:00:56.086Z,1012.12
2018-08-16T06:01:56.101Z,1012.17
2018-08-16T06:02:56.187Z,1012.14
2018-08-16T06:03:56.198Z,1012.20
2018-08-16T06:04:56.147Z,1012.15
2018-08-16T06:05:56.618Z,1012.15
2018-08-16T06:06:56.202Z,1012.17
2018-08-16T06:07:56.196Z,1012.18
2018-08-16T06:08:56.229Z,1012.17
2018-08-16T06:11:56.265Z,1012.18
2018-08-16T06:12:56.276Z,1012.13
2018-08-16T06:13:56.601Z,1012.16
2018-08-16T06:14:58.055Z,1012.14
2018-08-16T06:15:56.337Z,1012.13
2018-08-16T06:17:56.477Z,1012.15
2018-08-16T06:18:56.960Z,1012.14
2018-08-16T06:19:57.033Z,1012.10
2018-08-16T06:20:56.477Z,1012.09
2018-08-16T06:21:56.756Z,1012.11
2018-08-16T06:22:56.482Z,1012.11
2018-08-16T06:23:56.947Z,1012.10
2018-08-16T06:24:57.566Z,1012.09
2018-08-16T06:27:57.242Z,1012.10
2018-08-16T06:28:56.546Z,1012.13
2018-08-16T06:29:56.625Z,1012.13
2018-08-16T06:30:56.582Z,1012.15
2018-08-16T06:31:56.589Z,1012.15
2018-08-16T06:32:56.619Z,1012.18
2018-08-16T06:34:56.633Z,1012.15
2018-08-16T06:35:56.675Z,1012.16
2018-08-16T06:36:56.669Z,1012.20
2018-08-16T06:37:56.693Z,1012.17
2018-08-16T06:38:56.881Z,1012.18
2018-08-16T06:39:56.792Z,1012.16
2018-08-16T06:40:56.740Z,1012.19
2018-08-16T06:42:56.784Z,1012.17
2018-08-16T06:43:56.863Z,1012.11
2018-08-16T06:44:57.186Z,1012.19
2018-08-16T06:45:56.824Z,1012.17
2018-08-16T06:46:56.863Z,1012.14
2018-08-16T06:47:57.090Z,1012.08
2018-08-16T06:48:56.862Z,1012.09
2018-08-16T06:50:57.037Z,1012.05
2018-08-16T06:51:56.931Z,1012.04
2018-08-16T06:52:57.034Z,1012.03
2018-08-16T06:53:56.947Z,1012.03
2018-08-16T06:54:57.014Z,1012.02
2018-08-16T06:55:57.681Z,1012.07
2018-08-16T06:56:57.082Z,1012.05
2018-08-16T06:57:57.140Z,1012.06
2018-08-16T06:58:57.777Z,1012.07
2018-08-16T06:59:58.736Z,1012.06
2018-08-16T07:00:57.068Z,1011.98
2018-08-16T07:01:57.097Z,1012.01
2018-08-16T07:02:57.111Z,1011.98
2018-08-16T07:03:57.145Z,1011.96
2018-08-16T07:04:57.211Z,1012.00
2018-08-16T07:05:57.158Z,1011.96
2018-08-16T07:06:57.252Z,1011.95
2018-08-16T07:07:57.216Z,1011.98
2018-08-16T07:08:57.378Z,1011.95
2018-08-16T07:09:57.216Z,1011.94
2018-08-16T07:10:57.306Z,1011.94
2018-08-16T07:11:57.299Z,1011.96
2018-08-16T07:12:57.284Z,1011.95
2018-08-16T07:13:57.284Z,1011.96
2018-08-16T07:14:57.616Z,1011.94
2018-08-16T07:15:57.323Z,1011.94
2018-08-16T07:16:57.342Z,1011.95
2018-08-16T07:17:57.359Z,1011.96
2018-08-16T07:18:57.502Z,1011.97
2018-08-16T07:19:57.405Z,1011.96
2018-08-16T07:20:57.411Z,1011.92
2018-08-16T07:21:57.461Z,1011.93
2018-08-16T07:22:57.455Z,1011.95
2018-08-16T07:23:57.622Z,1011.92
2018-08-16T07:24:57.910Z,1011.87
2018-08-16T07:25:57.976Z,1011.90
2018-08-16T07:26:57.919Z,1011.88
2018-08-16T07:27:57.813Z,1011.91
2018-08-16T07:28:57.917Z,1011.88
2018-08-16T07:29:58.184Z,1011.90
2018-08-16T07:30:58.410Z,1011.86
2018-08-16T07:31:58.498Z,1011.90
2018-08-16T07:32:57.869Z,1011.90
2018-08-16T07:33:58.239Z,1011.89
2018-08-16T07:34:57.657Z,1011.84
2018-08-16T07:35:57.673Z,1011.85
2018-08-16T07:36:57.696Z,1011.84
2018-08-16T07:37:57.694Z,1011.83
2018-08-16T07:39:57.784Z,1011.81
2018-08-16T07:40:57.751Z,1011.83
2018-08-16T07:41:57.827Z,1011.83
2018-08-16T07:42:57.943Z,1011.76
2018-08-16T07:43:57.805Z,1011.75
2018-08-16T07:44:57.881Z,1011.76
2018-08-16T07:45:57.875Z,1011.77
2018-08-16T07:46:57.910Z,1011.74
2018-08-16T07:47:58.977Z,1011.72
2018-08-16T07:48:57.891Z,1011.72
2018-08-16T07:49:57.898Z,1011.72
2018-08-16T07:50:57.940Z,1011.67
2018-08-16T07:52:58.920Z,1011.66
2018-08-16T07:54:58.497Z,1011.69
2018-08-16T07:56:02.284Z,1011.69
2018-08-16T07:57:58.166Z,1011.69
2018-08-16T07:59:58.098Z,1011.69
2018-08-16T08:00:58.095Z,1011.70
2018-08-16T08:01:58.275Z,1011.68
2018-08-16T08:02:59.001Z,1011.71
2018-08-16T08:03:58.149Z,1011.71
2018-08-16T08:05:58.173Z,1011.72
2018-08-16T08:06:58.683Z,1011.67
2018-08-16T08:07:58.355Z,1011.68
2018-08-16T08:08:59.751Z,1011.75
2018-08-16T08:09:58.251Z,1011.77
2018-08-16T08:12:58.283Z,1011.72
2018-08-16T08:13:58.301Z,1011.70
2018-08-16T08:14:58.380Z,1011.76
2018-08-16T08:16:00.288Z,1011.74
2018-08-16T08:16:58.366Z,1011.69
2018-08-16T08:17:58.387Z,1011.67
2018-08-16T08:18:58.929Z,1011.70
2018-08-16T08:19:59.124Z,1011.65
2018-08-16T08:20:58.738Z,1011.62
2018-08-16T08:22:58.618Z,1011.63
2018-08-16T08:24:58.491Z,1011.65
2018-08-16T08:25:58.507Z,1011.63
2018-08-16T08:26:58.962Z,1011.62
2018-08-16T08:27:58.971Z,1011.62
2018-08-16T08:28:58.613Z,1011.63
2018-08-16T08:29:58.615Z,1011.64
2018-08-16T08:30:58.648Z,1011.63
2018-08-16T08:31:58.666Z,1011.63
2018-08-16T08:32:58.654Z,1011.64
2018-08-16T08:33:58.696Z,1011.64
2018-08-16T08:34:58.660Z,1011.59
2018-08-16T08:35:58.682Z,1011.56
2018-08-16T08:36:58.701Z,1011.57
2018-08-16T08:37:58.838Z,1011.56
2018-08-16T08:38:58.796Z,1011.59
2018-08-16T08:39:58.813Z,1011.55
2018-08-16T08:40:58.765Z,1011.55
2018-08-16T08:41:58.793Z,1011.57
2018-08-16T08:42:58.819Z,1011.59
2018-08-16T08:44:58.834Z,1011.58
2018-08-16T08:45:58.867Z,1011.58
2018-08-16T08:47:00.048Z,1011.57
2018-08-16T08:48:59.908Z,1011.56
2018-08-16T08:51:59.062Z,1011.54
2018-08-16T08:52:58.971Z,1011.48
2018-08-16T08:53:58.995Z,1011.52
2018-08-16T08:54:59.009Z,1011.56
2018-08-16T08:55:59.064Z,1011.56
2018-08-16T08:56:59.044Z,1011.52
2018-08-16T08:57:59.063Z,1011.55
2018-08-16T08:58:59.075Z,1011.54
2018-08-16T08:59:59.094Z,1011.54
2018-08-16T09:00:59.114Z,1011.52
2018-08-16T09:01:59.129Z,1011.43
2018-08-16T09:02:59.147Z,1011.47
2018-08-16T09:03:59.167Z,1011.44
2018-08-16T09:04:59.181Z,1011.43
2018-08-16T09:05:59.201Z,1011.45
2018-08-16T09:06:59.245Z,1011.35
2018-08-16T09:07:59.233Z,1011.44
2018-08-16T09:08:59.252Z,1011.40
2018-08-16T09:09:59.269Z,1011.38
2018-08-16T09:10:59.297Z,1011.44
2018-08-16T09:11:59.309Z,1011.32
2018-08-16T09:12:59.321Z,1011.34
2018-08-16T09:13:59.361Z,1011.36
2018-08-16T09:14:59.412Z,1011.32
2018-08-16T09:15:59.374Z,1011.35
2018-08-16T09:16:59.391Z,1011.40
2018-08-16T09:17:59.410Z,1011.33
2018-08-16T09:18:59.428Z,1011.32
2018-08-16T09:19:59.457Z,1011.31
2018-08-16T09:20:59.460Z,1011.34
2018-08-16T09:21:59.489Z,1011.30
2018-08-16T09:22:59.558Z,1011.30
2018-08-16T09:23:59.559Z,1011.32
2018-08-16T09:24:59.601Z,1011.32
2018-08-16T09:25:59.548Z,1011.31
2018-08-16T09:26:59.571Z,1011.31
2018-08-16T09:27:59.584Z,1011.30
2018-08-16T09:28:59.601Z,1011.23
2018-08-16T09:29:59.637Z,1011.24
2018-08-16T09:30:59.637Z,1011.28
2018-08-16T09:31:59.654Z,1011.25
2018-08-16T09:32:59.672Z,1011.27
2018-08-16T09:33:59.690Z,1011.20
2018-08-16T09:34:59.709Z,1011.22
2018-08-16T09:35:59.726Z,1011.25
2018-08-16T09:36:59.743Z,1011.24
2018-08-16T09:37:59.762Z,1011.24
2018-08-16T09:38:59.784Z,1011.23
2018-08-16T09:39:59.799Z,1011.20
2018-08-16T09:40:59.817Z,1011.16
2018-08-16T09:42:00.036Z,1011.18
2018-08-16T09:42:59.853Z,1011.14
2018-08-16T09:44:01.106Z,1011.11
2018-08-16T09:45:59.912Z,1011.14
2018-08-16T09:46:59.930Z,1011.18
2018-08-16T09:47:59.942Z,1011.22
2018-08-16T09:48:59.973Z,1011.22
2018-08-16T09:49:59.979Z,1011.18
2018-08-16T09:51:00.238Z,1011.12
2018-08-16T09:52:00.020Z,1011.16
2018-08-16T09:53:00.037Z,1011.16
2018-08-16T09:54:00.052Z,1011.17
2018-08-16T09:55:00.144Z,1011.13
2018-08-16T09:56:00.092Z,1011.05
2018-08-16T09:57:00.109Z,1011.01
2018-08-16T09:58:00.126Z,1011.00
2018-08-16T09:59:00.147Z,1011.08
2018-08-16T10:00:00.407Z,1011.03
2018-08-16T10:01:00.181Z,1011.05
2018-08-16T10:02:00.306Z,1011.02
2018-08-16T10:03:00.224Z,1011.05
2018-08-16T10:04:00.406Z,1011.02
2018-08-16T10:05:00.270Z,1011.04
2018-08-16T10:06:00.354Z,1011.03
2018-08-16T10:07:00.291Z,1011.00
2018-08-16T10:08:00.310Z,1011.01
2018-08-16T10:09:00.333Z,1010.96
2018-08-16T10:10:00.344Z,1010.90
2018-08-16T10:11:00.367Z,1010.91
2018-08-16T10:12:00.382Z,1010.86
2018-08-16T10:13:00.400Z,1010.91
2018-08-16T10:14:00.520Z,1010.97
2018-08-16T10:15:00.469Z,1010.91
2018-08-16T10:16:00.453Z,1010.91
2018-08-16T10:17:00.474Z,1010.87
2018-08-16T10:18:00.492Z,1010.82
2018-08-16T10:19:00.612Z,1010.77
2018-08-16T10:20:00.527Z,1010.78
2018-08-16T10:21:00.635Z,1010.76
2018-08-16T10:22:00.566Z,1010.80
2018-08-16T10:23:00.583Z,1010.82
2018-08-16T10:24:00.608Z,1010.77
2018-08-16T10:25:00.620Z,1010.75
2018-08-16T10:26:00.639Z,1010.74
2018-08-16T10:27:00.665Z,1010.77
2018-08-16T10:28:00.682Z,1010.79
2018-08-16T10:29:00.692Z,1010.76
2018-08-16T10:30:00.709Z,1010.82
2018-08-16T10:31:00.728Z,1010.83
2018-08-16T10:32:00.745Z,1010.80
2018-08-16T10:33:00.766Z,1010.84
2018-08-16T10:34:00.783Z,1010.80
2018-08-16T10:35:00.806Z,1010.78
2018-08-16T10:36:00.819Z,1010.84
2018-08-16T10:37:00.854Z,1010.80
2018-08-16T10:38:00.855Z,1010.80
2018-08-16T10:39:00.872Z,1010.72
2018-08-16T10:40:00.895Z,1010.69
2018-08-16T10:41:00.916Z,1010.68
2018-08-16T10:42:00.932Z,1010.67
2018-08-16T10:43:00.947Z,1010.68
2018-08-16T10:44:00.964Z,1010.69
2018-08-16T10:45:01.089Z,1010.67
2018-08-16T10:46:01.065Z,1010.65
2018-08-16T10:47:01.020Z,1010.65
2018-08-16T10:48:01.038Z,1010.62
2018-08-16T10:49:01.056Z,1010.63
2018-08-16T10:50:01.075Z,1010.62
2018-08-16T10:51:01.093Z,1010.62
2018-08-16T10:52:01.111Z,1010.61
2018-08-16T10:53:01.135Z,1010.68
2018-08-16T10:54:01.149Z,1010.67
2018-08-16T10:55:01.167Z,1010.71
2018-08-16T10:56:01.188Z,1010.68
2018-08-16T10:57:01.204Z,1010.70
2018-08-16T10:58:01.224Z,1010.64
2018-08-16T10:59:01.245Z,1010.63
2018-08-16T11:00:01.283Z,1010.64
2018-08-16T11:01:01.282Z,1010.55
2018-08-16T11:02:01.300Z,1010.54
2018-08-16T11:03:01.318Z,1010.54
2018-08-16T11:04:01.335Z,1010.52
2018-08-16T11:05:01.359Z,1010.55
2018-08-16T11:06:01.370Z,1010.58
2018-08-16T11:07:01.389Z,1010.53
2018-08-16T11:08:01.407Z,1010.51
2018-08-16T11:09:01.429Z,1010.54
2018-08-16T11:10:01.445Z,1010.52
2018-08-16T11:11:01.473Z,1010.53
2018-08-16T11:12:01.483Z,1010.52
2018-08-16T11:13:01.500Z,1010.46
2018-08-16T11:14:01.521Z,1010.51
2018-08-16T11:15:01.590Z,1010.51
2018-08-16T11:16:01.559Z,1010.49
2018-08-16T11:17:01.576Z,1010.47
2018-08-16T11:18:01.596Z,1010.44
2018-08-16T11:19:01.724Z,1010.45
2018-08-16T11:20:01.633Z,1010.48
2018-08-16T11:21:01.653Z,1010.50
2018-08-16T11:22:01.672Z,1010.43
2018-08-16T11:23:01.692Z,1010.45
2018-08-16T11:24:01.724Z,1010.44
2018-08-16T11:25:01.731Z,1010.44
2018-08-16T11:26:01.749Z,1010.40
2018-08-16T11:27:01.772Z,1010.38
2018-08-16T11:28:01.788Z,1010.41
2018-08-16T11:29:01.806Z,1010.42
2018-08-16T11:30:01.827Z,1010.41
2018-08-16T11:31:01.846Z,1010.37
2018-08-16T11:32:01.862Z,1010.42
2018-08-16T11:33:01.891Z,1010.41
2018-08-16T11:34:01.944Z,1010.38
2018-08-16T11:35:01.929Z,1010.38
2018-08-16T11:36:01.943Z,1010.42
2018-08-16T11:37:01.958Z,1010.41
2018-08-16T11:38:01.981Z,1010.42
2018-08-16T11:39:01.998Z,1010.42
2018-08-16T11:40:02.017Z,1010.36
2018-08-16T11:41:02.036Z,1010.44
2018-08-16T11:42:02.055Z,1010.41
2018-08-16T11:43:02.076Z,1010.40
2018-08-16T11:44:02.093Z,1010.40
2018-08-16T11:45:02.118Z,1010.41
2018-08-16T11:46:02.133Z,1010.42
2018-08-16T11:47:02.152Z,1010.42
2018-08-16T11:48:02.173Z,1010.43
2018-08-16T11:49:02.191Z,1010.40
2018-08-16T11:50:02.210Z,1010.35
2018-08-16T11:51:02.230Z,1010.34
2018-08-16T11:52:02.253Z,1010.35
2018-08-16T11:53:02.269Z,1010.31
2018-08-16T11:54:02.289Z,1010.28
2018-08-16T11:55:02.307Z,1010.29
2018-08-16T11:56:02.325Z,1010.29
2018-08-16T11:57:02.344Z,1010.25
2018-08-16T11:58:02.364Z,1010.21
2018-08-16T12:00:02.403Z,1010.22
2018-08-16T12:01:02.421Z,1010.20
2018-08-16T12:02:02.505Z,1010.18
2018-08-16T12:03:02.463Z,1010.17
2018-08-16T12:04:02.479Z,1010.19
2018-08-16T12:05:02.501Z,1010.18
2018-08-16T12:06:02.521Z,1010.14
2018-08-16T12:07:02.539Z,1010.16
2018-08-16T12:08:02.579Z,1010.14
2018-08-16T12:09:02.577Z,1010.17
2018-08-16T12:10:02.597Z,1010.20
2018-08-16T12:11:02.617Z,1010.15
2018-08-16T12:12:02.639Z,1010.10
2018-08-16T12:13:02.655Z,1010.08
2018-08-16T12:14:02.678Z,1010.06
2018-08-16T12:15:02.715Z,1010.12
2018-08-16T12:16:02.715Z,1010.11
2018-08-16T12:17:02.735Z,1010.09
2018-08-16T12:18:02.755Z,1010.13
2018-08-16T12:19:02.775Z,1010.11
2018-08-16T12:20:02.792Z,1010.08
2018-08-16T12:21:02.851Z,1010.15
2018-08-16T12:22:02.833Z,1010.11
2018-08-16T12:23:02.853Z,1010.07
2018-08-16T12:24:02.874Z,1010.07
2018-08-16T12:25:02.892Z,1009.98
2018-08-16T12:26:02.913Z,1010.02
2018-08-16T12:27:02.937Z,1010.08
2018-08-16T12:28:02.952Z,1010.05
2018-08-16T12:29:03.082Z,1010.07
2018-08-16T12:30:02.993Z,1010.09
2018-08-16T12:31:03.015Z,1010.05
2018-08-16T12:32:03.034Z,1010.11
2018-08-16T12:33:03.054Z,1010.03
2018-08-16T12:34:03.075Z,1010.09
2018-08-16T12:35:03.095Z,1010.09
2018-08-16T12:36:03.124Z,1010.02
2018-08-16T12:37:03.134Z,1010.03
2018-08-16T12:38:03.158Z,1010.00
2018-08-16T12:39:03.179Z,1010.01
2018-08-16T12:40:03.208Z,1009.99
2018-08-16T12:41:03.231Z,1009.98
2018-08-16T12:42:03.293Z,1009.97
2018-08-16T12:43:03.260Z,1009.95
2018-08-16T12:44:03.285Z,1009.92
2018-08-16T12:45:03.305Z,1009.88
2018-08-16T12:46:03.322Z,1009.91
2018-08-16T12:47:03.343Z,1009.94
2018-08-16T12:48:03.369Z,1009.94
2018-08-16T12:49:03.384Z,1009.91
2018-08-16T12:50:03.410Z,1009.94
2018-08-16T12:51:03.429Z,1009.93
2018-08-16T12:52:03.446Z,1009.87